aviador You're here:

MMCE Decoded Metar

CIUDAD DEL CARMEN in MEXICO
Report Time2018-07-22 23:40:00
UTC Time2018-07-23 00:04:59
Flight Rules vfr VFR
Wind020° at 10 kt
W.Decomp.*RWY 31: 3.7 kt HW 9.3 kt RCW
W.Rank020° ranks 7
Current wind is above 020° avg. (9.5)
Visibility9999 m
Phenomena:N/A
Clouds:Overcast 300 Hf
Expected CloudBase > 2,000 ft AGL from Temp-Dew spread
Ceiling30,000 ft
Temp30°C (ISA +15)
Dew Point25°C (75% RH)
Heat Index36.3°C
QNH1013 hPa
Density Alt2,142 ft
Elevation7 ft
Report Wrong Elevation
Raw Report
MMCE 222340Z 02010KT 7SM OVC300 30/25 A2990 RMK SLP122 54007 953
8/007 HZY=

Extra information for MMCE:More info

Metar Taf Metar & Taf Last 4 Metars F.Rules Stats Wind Profile Meteogram Temp Stats Airport Information Weather charts Add Link Nearby VenuesMetar ALERT Operation Metar Decoded Social comments